createdAt,value
2017-03-23T00:00:39.292Z,1017.2
2017-03-23T00:01:41.645Z,1017.1
2017-03-23T00:02:44.355Z,1017.1
2017-03-23T00:03:47.444Z,1017.1
2017-03-23T00:04:49.779Z,1017.1
2017-03-23T00:05:52.118Z,1017
2017-03-23T00:06:54.962Z,1017
2017-03-23T00:10:02.886Z,1017
2017-03-23T00:11:05.323Z,1017
2017-03-23T00:12:07.665Z,1017
2017-03-23T00:13:10.235Z,1017
2017-03-23T00:14:13.073Z,1017
2017-03-23T00:15:15.708Z,1017
2017-03-23T00:16:18.416Z,1016.9
2017-03-23T00:17:20.757Z,1017
2017-03-23T00:18:23.598Z,1017
2017-03-23T00:19:25.935Z,1016.9
2017-03-23T00:20:28.891Z,1016.9
2017-03-23T00:21:31.098Z,1017
2017-03-23T00:23:36.718Z,1016.9
2017-03-23T00:24:38.923Z,1016.9
2017-03-23T00:25:42.017Z,1016.9
2017-03-23T00:26:44.358Z,1016.9
2017-03-23T00:27:47.128Z,1016.8
2017-03-23T00:28:49.468Z,1016.8
2017-03-23T00:29:52.209Z,1016.8
2017-03-23T00:30:54.799Z,1016.9
2017-03-23T00:31:57.141Z,1016.8
2017-03-23T00:32:59.846Z,1016.8
2017-03-23T00:34:02.695Z,1016.9
2017-03-23T00:35:05.036Z,1016.9
2017-03-23T00:37:10.406Z,1016.9
2017-03-23T00:38:13.111Z,1016.8
2017-03-23T00:39:15.449Z,1016.8
2017-03-23T00:40:17.842Z,1016.8
2017-03-23T00:41:20.688Z,1016.7
2017-03-23T00:42:23.279Z,1016.8
2017-03-23T00:43:25.981Z,1016.7
2017-03-23T00:44:28.320Z,1016.7
2017-03-23T00:46:33.804Z,1016.7
2017-03-23T00:47:36.447Z,1016.8
2017-03-23T00:48:38.647Z,1016.8
2017-03-23T00:49:41.484Z,1016.8
2017-03-23T00:50:44.193Z,1016.8
2017-03-23T00:51:46.767Z,1016.8
2017-03-23T00:52:49.402Z,1016.8
2017-03-23T00:53:51.604Z,1016.8
2017-03-23T00:54:54.445Z,1016.8
2017-03-23T00:55:57.285Z,1016.8
2017-03-23T00:56:59.865Z,1016.7
2017-03-23T00:58:02.458Z,1016.7
2017-03-23T00:59:04.797Z,1016.8
2017-03-23T01:00:07.655Z,1016.8
2017-03-23T01:01:09.855Z,1016.9
2017-03-23T01:02:12.704Z,1016.8
2017-03-23T01:04:17.968Z,1016.9
2017-03-23T01:05:20.303Z,1016.9
2017-03-23T01:06:23.143Z,1017
2017-03-23T01:07:25.477Z,1017
2017-03-23T01:09:30.840Z,1016.9
2017-03-23T01:10:33.550Z,1016.9
2017-03-23T01:11:35.753Z,1016.9
2017-03-23T01:12:38.595Z,1016.9
2017-03-23T01:13:40.979Z,1016.8
2017-03-23T01:14:44.077Z,1016.9
2017-03-23T01:15:46.159Z,1016.9
2017-03-23T01:16:49.060Z,1016.9
2017-03-23T01:17:51.635Z,1017
2017-03-23T01:18:53.971Z,1017
2017-03-23T01:19:56.933Z,1017
2017-03-23T01:20:59.273Z,1017
2017-03-23T01:22:01.983Z,1017
2017-03-23T01:23:04.691Z,1017
2017-03-23T01:25:10.190Z,1017.1
2017-03-23T01:26:12.530Z,1017.1
2017-03-23T01:27:14.739Z,1017
2017-03-23T01:28:17.582Z,1017.1
2017-03-23T01:29:19.919Z,1017.1
2017-03-23T01:31:25.835Z,1017.1
2017-03-23T01:32:27.908Z,1017.1
2017-03-23T01:33:30.243Z,1017.1
2017-03-23T01:34:32.949Z,1017
2017-03-23T01:35:35.850Z,1017
2017-03-23T01:36:38.438Z,1017
2017-03-23T01:37:40.778Z,1017
2017-03-23T01:38:43.494Z,1017
2017-03-23T01:39:45.832Z,1017
2017-03-23T01:40:48.540Z,1017
2017-03-23T01:41:51.637Z,1017
2017-03-23T01:42:53.979Z,1017
2017-03-23T01:43:56.683Z,1017
2017-03-23T01:44:59.254Z,1017
2017-03-23T01:46:01.593Z,1016.9
2017-03-23T01:47:04.697Z,1016.9
2017-03-23T01:48:07.032Z,1016.8
2017-03-23T01:49:09.373Z,1016.8
2017-03-23T01:50:12.076Z,1016.8
2017-03-23T01:51:14.427Z,1016.8
2017-03-23T01:52:17.394Z,1016.8
2017-03-23T01:53:19.729Z,1016.8
2017-03-23T01:54:22.301Z,1016.8
2017-03-23T01:55:25.143Z,1016.7
2017-03-23T01:56:27.490Z,1016.7
2017-03-23T01:58:32.993Z,1016.7
2017-03-23T01:59:35.330Z,1016.7
2017-03-23T02:00:38.181Z,1016.7
2017-03-23T02:01:40.382Z,1016.8
2017-03-23T02:02:43.227Z,1016.8
2017-03-23T02:03:45.820Z,1016.8
2017-03-23T02:04:48.530Z,1016.8
2017-03-23T02:05:50.786Z,1016.8
2017-03-23T02:06:53.631Z,1016.9
2017-03-23T02:07:56.207Z,1016.9
2017-03-23T02:08:58.797Z,1016.9
2017-03-23T02:10:01.131Z,1016.9
2017-03-23T02:11:03.972Z,1016.9
2017-03-23T02:12:06.681Z,1016.9
2017-03-23T02:13:09.022Z,1016.8
2017-03-23T02:14:12.123Z,1016.8
2017-03-23T02:15:14.325Z,1016.7
2017-03-23T02:16:16.657Z,1016.7
2017-03-23T02:17:19.363Z,1016.7
2017-03-23T02:18:22.203Z,1016.7
2017-03-23T02:19:24.797Z,1016.8
2017-03-23T02:20:27.168Z,1016.8
2017-03-23T02:21:30.013Z,1016.8
2017-03-23T02:22:32.351Z,1016.7
2017-03-23T02:23:35.203Z,1016.8
2017-03-23T02:24:37.797Z,1016.8
2017-03-23T02:25:40.004Z,1016.7
2017-03-23T02:26:42.844Z,1016.7
2017-03-23T02:27:45.684Z,1016.7
2017-03-23T02:28:48.025Z,1016.8
2017-03-23T02:29:50.672Z,1016.8
2017-03-23T02:30:53.020Z,1016.8
2017-03-23T02:31:55.864Z,1016.8
2017-03-23T02:32:58.201Z,1016.8
2017-03-23T02:34:00.910Z,1016.8
2017-03-23T02:35:04.002Z,1016.8
2017-03-23T02:36:06.340Z,1016.8
2017-03-23T02:37:08.549Z,1016.8
2017-03-23T02:38:11.321Z,1016.8
2017-03-23T02:39:14.169Z,1016.8
2017-03-23T02:40:16.825Z,1016.8
2017-03-23T02:41:19.163Z,1016.7
2017-03-23T02:42:21.541Z,1016.7
2017-03-23T02:43:24.421Z,1016.7
2017-03-23T02:44:27.131Z,1016.7
2017-03-23T02:45:29.720Z,1016.7
2017-03-23T02:46:32.058Z,1016.6
2017-03-23T02:47:34.899Z,1016.6
2017-03-23T02:48:37.100Z,1016.6
2017-03-23T02:49:39.942Z,1016.6
2017-03-23T02:50:42.539Z,1016.6
2017-03-23T02:51:44.886Z,1016.6
2017-03-23T02:52:47.727Z,1016.6
2017-03-23T02:53:50.125Z,1016.6
2017-03-23T02:54:52.696Z,1016.6
2017-03-23T02:55:55.789Z,1016.6
2017-03-23T02:56:58.127Z,1016.6
2017-03-23T02:58:00.465Z,1016.6
2017-03-23T02:59:03.305Z,1016.6
2017-03-23T03:00:06.065Z,1016.6
2017-03-23T03:01:08.519Z,1016.6
2017-03-23T03:02:11.233Z,1016.6
2017-03-23T03:03:13.574Z,1016.6
2017-03-23T03:04:16.415Z,1016.6
2017-03-23T03:05:18.753Z,1016.6
2017-03-23T03:06:21.846Z,1016.6
2017-03-23T03:08:26.590Z,1016.7
2017-03-23T03:09:29.431Z,1016.6
2017-03-23T03:10:31.776Z,1016.6
2017-03-23T03:11:34.923Z,1016.6
2017-03-23T03:12:36.758Z,1016.6
2017-03-23T03:13:39.461Z,1016.6
2017-03-23T03:14:42.032Z,1016.6
2017-03-23T03:15:44.741Z,1016.6
2017-03-23T03:17:50.250Z,1016.6
2017-03-23T03:19:55.266Z,1016.5
2017-03-23T03:20:57.601Z,1016.5
2017-03-23T03:22:00.314Z,1016.5
2017-03-23T03:23:03.409Z,1016.5
2017-03-23T03:24:05.747Z,1016.5
2017-03-23T03:25:08.090Z,1016.5
2017-03-23T03:26:10.483Z,1016.5
2017-03-23T03:27:13.323Z,1016.6
2017-03-23T03:28:16.286Z,1016.5
2017-03-23T03:29:18.682Z,1016.5
2017-03-23T03:30:21.024Z,1016.5
2017-03-23T03:31:23.874Z,1016.5
2017-03-23T03:32:26.088Z,1016.5
2017-03-23T03:33:29.057Z,1016.5
2017-03-23T03:34:31.636Z,1016.5
2017-03-23T03:35:33.981Z,1016.6
2017-03-23T03:36:36.834Z,1016.5
2017-03-23T03:37:39.048Z,1016.5
2017-03-23T03:38:42.152Z,1016.5
2017-03-23T03:39:44.365Z,1016.5
2017-03-23T03:40:47.219Z,1016.6
2017-03-23T03:41:49.440Z,1016.5
2017-03-23T03:42:52.296Z,1016.5
2017-03-23T03:43:54.894Z,1016.5
2017-03-23T03:44:57.237Z,1016.5
2017-03-23T03:46:00.088Z,1016.5
2017-03-23T03:48:05.353Z,1016.5
2017-03-23T03:49:07.950Z,1016.6
2017-03-23T03:50:10.297Z,1016.5
2017-03-23T03:51:13.145Z,1016.6
2017-03-23T03:52:15.492Z,1016.6
2017-03-23T03:53:18.216Z,1016.6
2017-03-23T03:54:20.813Z,1016.6
2017-03-23T03:55:23.526Z,1016.6
2017-03-23T03:56:25.875Z,1016.6
2017-03-23T03:57:28.588Z,1016.6
2017-03-23T03:58:30.938Z,1016.6
2017-03-23T03:59:33.969Z,1016.6
2017-03-23T04:00:36.320Z,1016.7
2017-03-23T04:01:38.667Z,1016.7
2017-03-23T04:02:41.322Z,1016.7
2017-03-23T04:03:43.901Z,1016.6
2017-03-23T04:04:47.002Z,1016.7
2017-03-23T04:05:49.082Z,1016.7
2017-03-23T04:06:51.936Z,1016.7
2017-03-23T04:07:54.147Z,1016.7
2017-03-23T04:08:56.859Z,1016.7
2017-03-23T04:09:59.828Z,1016.7
2017-03-23T04:11:02.227Z,1016.7
2017-03-23T04:12:04.574Z,1016.6
2017-03-23T04:13:07.426Z,1016.7
2017-03-23T04:14:09.769Z,1016.6
2017-03-23T04:15:12.735Z,1016.7
2017-03-23T04:16:15.082Z,1016.7
2017-03-23T04:17:17.802Z,1016.6
2017-03-23T04:18:20.148Z,1016.7
2017-03-23T04:19:22.859Z,1016.7
2017-03-23T04:20:25.455Z,1016.7
2017-03-23T04:21:27.797Z,1016.7
2017-03-23T04:22:30.647Z,1016.7
2017-03-23T04:23:33.090Z,1016.7
2017-03-23T04:24:35.936Z,1016.7
2017-03-23T04:25:38.588Z,1016.7
2017-03-23T04:26:40.945Z,1016.7
2017-03-23T04:27:43.297Z,1016.7
2017-03-23T04:28:46.009Z,1016.7
2017-03-23T04:29:48.731Z,1016.7
2017-03-23T04:30:51.698Z,1016.7
2017-03-23T04:31:54.049Z,1016.7
2017-03-23T04:32:56.258Z,1016.7
2017-03-23T04:33:59.107Z,1016.7
2017-03-23T04:35:01.452Z,1016.7
2017-03-23T04:36:04.555Z,1016.7
2017-03-23T04:37:06.791Z,1016.7
2017-03-23T04:38:09.374Z,1016.7
2017-03-23T04:39:12.085Z,1016.7
2017-03-23T04:40:14.430Z,1016.7
2017-03-23T04:41:17.533Z,1016.8
2017-03-23T04:42:19.876Z,1016.8
2017-03-23T04:43:22.229Z,1016.8
2017-03-23T04:44:25.080Z,1016.8
2017-03-23T04:45:27.423Z,1016.8
2017-03-23T04:46:30.521Z,1016.8
2017-03-23T04:47:32.369Z,1016.7
2017-03-23T04:48:35.083Z,1016.8
2017-03-23T04:49:37.793Z,1016.8
2017-03-23T04:50:40.331Z,1016.7
2017-03-23T04:51:43.431Z,1016.8
2017-03-23T04:52:45.779Z,1016.8
2017-03-23T04:53:47.994Z,1016.8
2017-03-23T04:54:50.846Z,1016.8
2017-03-23T04:55:53.427Z,1016.8
2017-03-23T04:56:56.080Z,1016.8
2017-03-23T04:57:58.423Z,1016.7
2017-03-23T04:59:01.139Z,1016.8
2017-03-23T05:00:03.485Z,1016.8
2017-03-23T05:01:06.341Z,1016.8
2017-03-23T05:02:08.813Z,1016.8
2017-03-23T05:03:11.163Z,1016.8
2017-03-23T05:04:14.106Z,1016.8
2017-03-23T05:05:16.512Z,1016.8
2017-03-23T05:06:18.860Z,1016.7
2017-03-23T05:07:21.825Z,1016.8
2017-03-23T05:08:24.102Z,1016.8
2017-03-23T05:09:27.017Z,1016.8
2017-03-23T05:10:29.596Z,1016.8
2017-03-23T05:11:31.809Z,1016.8
2017-03-23T05:12:34.964Z,1016.8
2017-03-23T05:13:37.313Z,1016.8
2017-03-23T05:14:39.525Z,1016.8
2017-03-23T05:15:42.380Z,1016.8
2017-03-23T05:16:44.728Z,1016.9
2017-03-23T05:17:47.828Z,1016.8
2017-03-23T05:18:50.171Z,1016.9
2017-03-23T05:19:52.749Z,1016.8
2017-03-23T05:20:55.095Z,1016.9
2017-03-23T05:21:57.674Z,1016.9
2017-03-23T05:23:00.774Z,1016.9
2017-03-23T05:24:03.117Z,1017
2017-03-23T05:25:05.462Z,1016.9
2017-03-23T05:26:08.311Z,1016.9
2017-03-23T05:27:10.696Z,1016.9
2017-03-23T05:28:13.295Z,1017
2017-03-23T05:29:15.641Z,1017
2017-03-23T05:30:18.354Z,1016.9
2017-03-23T05:31:21.070Z,1016.9
2017-03-23T05:32:23.420Z,1016.9
2017-03-23T05:33:26.525Z,1017
2017-03-23T05:34:28.876Z,1017
2017-03-23T05:35:31.226Z,1017
2017-03-23T05:36:34.072Z,1017
2017-03-23T05:37:36.677Z,1017.1
2017-03-23T05:38:39.273Z,1017.1
2017-03-23T05:39:41.852Z,1017.1
2017-03-23T05:40:44.196Z,1017.1
2017-03-23T05:41:46.917Z,1017.1
2017-03-23T05:42:49.265Z,1017.1
2017-03-23T05:43:52.362Z,1017.1
2017-03-23T05:44:54.441Z,1017.1
2017-03-23T05:45:57.021Z,1017.1
2017-03-23T05:46:59.870Z,1017.2
2017-03-23T05:48:02.219Z,1017.2
2017-03-23T05:49:04.875Z,1017.2
2017-03-23T05:50:07.225Z,1017.2
2017-03-23T05:51:10.077Z,1017.2
2017-03-23T05:52:12.428Z,1017.2
2017-03-23T05:57:25.710Z,1017.2
2017-03-23T05:58:28.054Z,1017.2
2017-03-23T05:59:30.398Z,1017.2
2017-03-23T06:00:33.114Z,1017.3
2017-03-23T06:01:35.525Z,1017.2
2017-03-23T06:02:38.626Z,1017.2
2017-03-23T06:03:41.138Z,1017.2
2017-03-23T06:04:43.346Z,1017.2
2017-03-23T06:05:46.196Z,1017.3
2017-03-23T06:06:48.905Z,1017.3
2017-03-23T06:07:51.508Z,1017.3
2017-03-23T06:08:53.850Z,1017.3
2017-03-23T06:09:56.195Z,1017.3
2017-03-23T06:10:59.049Z,1017.3
2017-03-23T06:12:01.397Z,1017.3
2017-03-23T06:13:04.497Z,1017.3
2017-03-23T06:14:06.843Z,1017.3
2017-03-23T06:15:09.060Z,1017.3
2017-03-23T06:16:11.909Z,1017.3
2017-03-23T06:17:14.253Z,1017.3
2017-03-23T06:18:17.280Z,1017.3
2017-03-23T06:19:19.627Z,1017.3
2017-03-23T06:20:22.226Z,1017.4
2017-03-23T06:21:24.576Z,1017.4
2017-03-23T06:22:27.429Z,1017.4
2017-03-23T06:23:30.397Z,1017.4
2017-03-23T06:25:35.146Z,1017.4
2017-03-23T06:26:37.492Z,1017.4
2017-03-23T06:27:40.339Z,1017.4
2017-03-23T06:28:43.306Z,1017.4
2017-03-23T06:30:48.057Z,1017.4
2017-03-23T06:41:13.820Z,1017.7
2017-03-23T06:43:18.935Z,1017.7
2017-03-23T06:50:37.475Z,1017.8
2017-03-23T06:51:39.820Z,1017.8
2017-03-23T06:52:42.168Z,1017.7
2017-03-23T06:53:44.515Z,1017.7
2017-03-23T06:54:47.287Z,1017.7
2017-03-23T06:55:17.929Z,1017.7
2017-03-23T06:55:50.386Z,1017.7
2017-03-23T06:56:52.236Z,1017.6
2017-03-23T06:57:54.950Z,1017.6
2017-03-23T06:58:57.533Z,1017.6
2017-03-23T07:00:00.387Z,1017.6
2017-03-23T07:01:02.989Z,1017.6
2017-03-23T07:02:05.330Z,1017.6
2017-03-23T07:03:08.052Z,1017.6
2017-03-23T07:04:10.766Z,1017.6
2017-03-23T07:06:15.768Z,1017.6
2017-03-23T07:07:18.419Z,1017.7
2017-03-23T07:08:20.768Z,1017.7
2017-03-23T07:09:23.615Z,1017.7
2017-03-23T07:10:26.018Z,1017.7
2017-03-23T07:11:28.998Z,1017.7
2017-03-23T07:12:31.409Z,1017.7
2017-03-23T07:13:33.759Z,1017.7
2017-03-23T07:14:36.604Z,1017.7
2017-03-23T07:15:39.008Z,1017.7
2017-03-23T07:16:41.976Z,1017.7
2017-03-23T07:17:44.322Z,1017.7
2017-03-23T07:18:46.528Z,1017.7
2017-03-23T07:19:49.432Z,1017.7
2017-03-23T07:20:51.782Z,1017.8
2017-03-23T07:21:54.750Z,1017.8
2017-03-23T07:22:57.100Z,1017.7
2017-03-23T07:25:02.219Z,1017.8
2017-03-23T07:26:04.939Z,1017.8
2017-03-23T07:27:07.544Z,1017.8
2017-03-23T07:28:09.890Z,1017.8
2017-03-23T07:29:12.607Z,1017.8
2017-03-23T07:30:14.956Z,1017.8
2017-03-23T07:31:17.804Z,1017.8
2017-03-23T07:32:20.411Z,1017.8
2017-03-23T07:33:22.762Z,1017.9
2017-03-23T07:34:25.481Z,1017.9
2017-03-23T07:35:28.197Z,1017.8
2017-03-23T07:36:30.412Z,1017.9
2017-03-23T07:37:33.551Z,1017.9
2017-03-23T07:38:35.634Z,1017.9
2017-03-23T07:39:38.488Z,1017.9
2017-03-23T07:40:40.833Z,1017.9
2017-03-23T07:41:43.616Z,1017.9
2017-03-23T07:42:46.588Z,1017.9
2017-03-23T07:43:48.806Z,1017.9
2017-03-23T07:44:51.152Z,1017.9
2017-03-23T07:45:53.863Z,1017.8
2017-03-23T07:46:56.716Z,1017.9
2017-03-23T07:47:59.312Z,1017.8
2017-03-23T07:49:01.588Z,1017.8
2017-03-23T07:50:04.340Z,1017.8
2017-03-23T07:52:09.601Z,1017.8
2017-03-23T07:53:12.203Z,1017.8
2017-03-23T07:54:14.550Z,1017.8
2017-03-23T07:55:17.133Z,1017.8
2017-03-23T07:56:19.981Z,1017.9
2017-03-23T07:57:22.326Z,1017.8
2017-03-23T07:58:25.354Z,1017.8
2017-03-23T07:59:27.753Z,1017.8
2017-03-23T08:00:30.097Z,1017.8
2017-03-23T08:01:32.814Z,1017.8
2017-03-23T08:02:35.533Z,1017.9
2017-03-23T08:03:38.180Z,1017.8
2017-03-23T08:05:42.936Z,1017.8
2017-03-23T08:06:45.784Z,1017.9
2017-03-23T08:07:48.141Z,1017.8
2017-03-23T08:08:51.296Z,1017.7
2017-03-23T08:09:53.642Z,1017.7
2017-03-23T08:10:55.990Z,1017.8
2017-03-23T08:11:58.839Z,1017.8
2017-03-23T08:13:01.182Z,1017.8
2017-03-23T08:14:04.345Z,1017.8
2017-03-23T08:15:06.692Z,1017.8
2017-03-23T08:16:09.046Z,1017.8
2017-03-23T08:17:11.899Z,1017.8
2017-03-23T08:19:16.957Z,1017.8
2017-03-23T08:20:19.538Z,1017.8
2017-03-23T08:21:22.255Z,1017.8
2017-03-23T08:22:24.605Z,1017.9
2017-03-23T08:23:27.456Z,1017.9
2017-03-23T08:24:30.112Z,1017.9
2017-03-23T08:25:32.329Z,1017.9
2017-03-23T08:26:35.178Z,1017.9
2017-03-23T08:27:37.525Z,1018
2017-03-23T08:28:40.381Z,1018
2017-03-23T08:29:43.037Z,1018
2017-03-23T08:30:45.388Z,1018
2017-03-23T08:31:48.237Z,1018
2017-03-23T08:38:03.794Z,1018
2017-03-23T08:43:17.058Z,1018.1
2017-03-23T08:44:19.417Z,1018.2
2017-03-23T08:45:21.760Z,1018.1
2017-03-23T08:46:24.163Z,1018.2
2017-03-23T08:50:34.864Z,1018.2
2017-03-23T08:51:37.210Z,1018.2
2017-03-23T08:54:44.937Z,1018.1
2017-03-23T08:55:48.106Z,1018.2
2017-03-23T09:07:16.648Z,1018.2
2017-03-23T09:12:29.747Z,1018.3
2017-03-23T09:15:36.900Z,1018.3
2017-03-23T09:16:39.809Z,1018.4
2017-03-23T09:20:50.195Z,1018.3
2017-03-23T09:22:55.366Z,1018.4
2017-03-23T09:23:57.717Z,1018.4
2017-03-23T09:25:00.562Z,1018.4
2017-03-23T09:26:03.158Z,1018.4
2017-03-23T09:27:05.744Z,1018.4
2017-03-23T09:29:10.998Z,1018.5
2017-03-23T09:31:16.372Z,1018.4
2017-03-23T09:33:21.169Z,1018.4
2017-03-23T09:35:26.297Z,1018.4
2017-03-23T09:36:29.401Z,1018.4
2017-03-23T09:39:36.931Z,1018.4
2017-03-23T09:40:39.284Z,1018.4
2017-03-23T09:41:42.437Z,1018.4
2017-03-23T09:42:44.787Z,1018.4
2017-03-23T09:44:50.043Z,1018.4
2017-03-23T09:45:52.610Z,1018.4
2017-03-23T09:47:58.033Z,1018.4
2017-03-23T09:49:00.382Z,1018.4
2017-03-23T09:50:02.722Z,1018.3
2017-03-23T09:52:07.846Z,1018.3
2017-03-23T09:54:13.349Z,1018.3
2017-03-23T09:55:15.692Z,1018.3
2017-03-23T09:56:18.539Z,1018.3
2017-03-23T09:57:20.946Z,1018.3
2017-03-23T09:58:23.794Z,1018.3
2017-03-23T09:59:26.258Z,1018.3
2017-03-23T10:00:28.599Z,1018.3
2017-03-23T10:01:31.318Z,1018.3
2017-03-23T10:02:34.166Z,1018.3
2017-03-23T10:03:36.533Z,1018.4
2017-03-23T10:04:39.629Z,1018.3
2017-03-23T10:05:41.979Z,1018.3
2017-03-23T10:06:44.326Z,1018.3
2017-03-23T10:07:47.176Z,1018.4
2017-03-23T10:08:49.522Z,1018.4
2017-03-23T10:09:52.493Z,1018.4
2017-03-23T10:10:54.835Z,1018.4
2017-03-23T10:13:00.098Z,1018.4
2017-03-23T10:14:02.453Z,1018.4
2017-03-23T10:15:05.555Z,1018.4
2017-03-23T10:16:07.905Z,1018.5
2017-03-23T10:17:10.251Z,1018.5
2017-03-23T10:18:12.978Z,1018.4
2017-03-23T10:19:15.328Z,1018.4
2017-03-23T10:20:18.295Z,1018.4
2017-03-23T10:21:20.570Z,1018.4
2017-03-23T10:22:23.290Z,1018.5
2017-03-23T10:23:26.002Z,1018.5
2017-03-23T10:24:28.353Z,1018.5
2017-03-23T10:25:31.453Z,1018.5
2017-03-23T10:26:33.804Z,1018.5
2017-03-23T10:27:36.160Z,1018.5
2017-03-23T10:28:39.006Z,1018.5
2017-03-23T10:29:41.355Z,1018.5
2017-03-23T10:30:44.456Z,1018.5
2017-03-23T10:31:46.670Z,1018.5
2017-03-23T10:33:51.929Z,1018.5
2017-03-23T10:34:54.644Z,1018.5
2017-03-23T10:35:57.243Z,1018.5
2017-03-23T10:36:59.590Z,1018.5
2017-03-23T10:39:04.852Z,1018.5
2017-03-23T10:41:10.552Z,1018.6
2017-03-23T10:42:12.900Z,1018.6
2017-03-23T10:43:15.346Z,1018.6
2017-03-23T10:46:23.294Z,1018.6
2017-03-23T10:47:25.506Z,1018.6
2017-03-23T10:49:30.634Z,1018.6
2017-03-23T10:51:36.142Z,1018.6
2017-03-23T10:52:38.489Z,1018.6
2017-03-23T10:53:41.337Z,1018.6
2017-03-23T10:54:43.696Z,1018.5
2017-03-23T10:55:46.556Z,1018.5
2017-03-23T10:56:49.152Z,1018.5
2017-03-23T10:57:51.499Z,1018.5
2017-03-23T10:59:56.622Z,1018.4
2017-03-23T11:00:59.334Z,1018.4
2017-03-23T11:02:02.358Z,1018.4
2017-03-23T11:03:04.705Z,1018.4
2017-03-23T11:05:09.828Z,1018.4
2017-03-23T11:07:15.201Z,1018.3
2017-03-23T11:08:17.544Z,1018.4
2017-03-23T11:10:22.735Z,1018.4
2017-03-23T11:11:25.583Z,1018.4
2017-03-23T11:12:28.181Z,1018.4
2017-03-23T11:13:30.394Z,1018.4
2017-03-23T11:14:33.111Z,1018.4
2017-03-23T11:15:35.964Z,1018.5
2017-03-23T11:16:38.313Z,1018.5
2017-03-23T11:17:41.410Z,1018.5
2017-03-23T11:18:43.756Z,1018.5
2017-03-23T11:19:46.104Z,1018.4
2017-03-23T11:20:48.950Z,1018.5
2017-03-23T11:21:51.676Z,1018.4
2017-03-23T11:22:54.272Z,1018.5
2017-03-23T11:23:56.615Z,1018.4
2017-03-23T11:24:59.465Z,1018.5
2017-03-23T11:26:01.815Z,1018.4
2017-03-23T11:27:04.672Z,1018.5
2017-03-23T11:28:07.378Z,1018.4
2017-03-23T11:29:09.595Z,1018.4
2017-03-23T11:30:12.444Z,1018.4
2017-03-23T11:31:14.791Z,1018.4
2017-03-23T11:32:17.647Z,1018.4
2017-03-23T11:33:20.249Z,1018.4
2017-03-23T11:34:22.592Z,1018.4
2017-03-23T11:35:25.311Z,1018.3
2017-03-23T11:36:28.165Z,1018.3
2017-03-23T11:38:33.679Z,1018.3
2017-03-23T11:39:35.888Z,1018.4
2017-03-23T11:40:38.240Z,1018.4
2017-03-23T11:41:41.137Z,1018.4
2017-03-23T11:42:43.484Z,1018.4
2017-03-23T11:43:46.636Z,1018.4
2017-03-23T11:44:48.983Z,1018.3
2017-03-23T11:45:51.432Z,1018.3
2017-03-23T11:46:54.280Z,1018.4
2017-03-23T11:47:56.630Z,1018.4
2017-03-23T11:48:59.781Z,1018.5
2017-03-23T11:49:42.497Z,1018.5
2017-03-23T11:50:13.194Z,1018.5
2017-03-23T11:51:04.838Z,1018.4
2017-03-23T11:52:07.182Z,1018.5
2017-03-23T11:53:09.895Z,1018.5
2017-03-23T11:54:12.908Z,1018.5
2017-03-23T11:55:15.121Z,1018.5
2017-03-23T11:56:17.701Z,1018.5
2017-03-23T11:57:20.460Z,1018.5
2017-03-23T11:59:25.696Z,1018.5
2017-03-23T12:00:27.980Z,1018.5
2017-03-23T12:01:30.697Z,1018.5
2017-03-23T12:02:33.102Z,1018.5
2017-03-23T12:03:35.954Z,1018.5
2017-03-23T12:05:41.696Z,1018.5
2017-03-23T12:06:43.910Z,1018.5
2017-03-23T12:07:46.644Z,1018.5
2017-03-23T12:08:48.996Z,1018.5
2017-03-23T12:09:51.711Z,1018.5
2017-03-23T12:10:54.680Z,1018.5
2017-03-23T12:11:57.026Z,1018.4
2017-03-23T12:12:59.380Z,1018.5
2017-03-23T12:14:02.228Z,1018.4
2017-03-23T12:15:04.574Z,1018.4
2017-03-23T12:16:07.678Z,1018.4
2017-03-23T12:17:09.946Z,1018.4
2017-03-23T12:18:12.794Z,1018.4
2017-03-23T12:19:15.144Z,1018.4
2017-03-23T12:20:17.991Z,1018.3
2017-03-23T12:21:20.952Z,1018.3
2017-03-23T12:22:23.163Z,1018.3
2017-03-23T12:23:25.746Z,1018.2
2017-03-23T12:25:30.864Z,1018.3
2017-03-23T12:26:33.877Z,1018.3
2017-03-23T12:27:36.090Z,1018.2
2017-03-23T12:28:38.934Z,1018.2
2017-03-23T12:29:41.647Z,1018.2
2017-03-23T12:30:43.996Z,1018.2
2017-03-23T12:31:47.100Z,1018.2
2017-03-23T12:32:49.443Z,1018.2
2017-03-23T12:33:52.156Z,1018.1
2017-03-23T12:34:54.501Z,1018.1
2017-03-23T12:35:57.350Z,1018.1
2017-03-23T12:37:00.189Z,1018.1
2017-03-23T12:38:02.538Z,1018.1
2017-03-23T12:39:05.313Z,1018.1
2017-03-23T12:40:07.658Z,1018.2
2017-03-23T12:41:10.512Z,1018.1
2017-03-23T12:42:13.112Z,1018.1
2017-03-23T12:43:15.376Z,1018.1
2017-03-23T12:44:18.234Z,1018
2017-03-23T12:45:21.081Z,1018
2017-03-23T12:46:23.337Z,1018
2017-03-23T12:47:26.507Z,1018.1
2017-03-23T12:49:31.260Z,1018.1
2017-03-23T12:50:34.105Z,1018.1
2017-03-23T12:51:36.326Z,1018.1
2017-03-23T12:52:39.342Z,1018.1
2017-03-23T12:54:44.462Z,1018
2017-03-23T12:55:46.807Z,1018.2
2017-03-23T12:56:49.655Z,1018.1
2017-03-23T12:57:52.490Z,1018.1
2017-03-23T12:58:54.832Z,1018.1
2017-03-23T12:59:57.682Z,1018.1
2017-03-23T13:01:00.096Z,1018
2017-03-23T13:02:02.506Z,1018.1
2017-03-23T13:03:05.474Z,1018.1
2017-03-23T13:04:07.886Z,1018.1
2017-03-23T13:05:10.734Z,1018.1
2017-03-23T13:06:13.020Z,1018
2017-03-23T13:07:15.867Z,1018
2017-03-23T13:08:18.886Z,1018.1
2017-03-23T13:09:21.230Z,1018.1
2017-03-23T13:10:23.578Z,1018.1
2017-03-23T13:11:26.293Z,1018.1
2017-03-23T13:12:29.148Z,1018.2
2017-03-23T13:13:31.615Z,1018.1
2017-03-23T13:15:36.872Z,1018.1
2017-03-23T13:16:39.586Z,1018.1
2017-03-23T13:17:41.933Z,1018.2
2017-03-23T13:18:45.029Z,1018.2
2017-03-23T13:20:50.159Z,1018.2
2017-03-23T13:21:52.502Z,1018.2
2017-03-23T13:22:55.353Z,1018.3
2017-03-23T13:23:57.864Z,1018.2
2017-03-23T13:25:00.215Z,1018.2
2017-03-23T13:26:03.297Z,1018.2
2017-03-23T13:27:05.646Z,1018.2
2017-03-23T13:28:08.500Z,1018.1
2017-03-23T13:29:11.095Z,1018.1
2017-03-23T13:30:13.509Z,1018.1
2017-03-23T13:31:16.354Z,1018.1
2017-03-23T13:32:18.703Z,1018.2
2017-03-23T13:33:21.612Z,1018.1
2017-03-23T13:34:24.245Z,1018.2
2017-03-23T13:35:26.598Z,1018.1
2017-03-23T13:36:29.445Z,1018.2
2017-03-23T13:37:32.029Z,1018.2
2017-03-23T13:38:34.877Z,1018.2
2017-03-23T13:39:37.338Z,1018.3
2017-03-23T13:40:39.690Z,1018.3
2017-03-23T13:41:42.542Z,1018.3
2017-03-23T13:42:45.395Z,1018.3
2017-03-23T13:43:47.608Z,1018.4
2017-03-23T13:44:50.575Z,1018.3
2017-03-23T13:45:52.926Z,1018.4
2017-03-23T13:46:55.774Z,1018.4
2017-03-23T13:47:58.487Z,1018.4
2017-03-23T13:49:01.071Z,1018.4
2017-03-23T13:50:03.667Z,1018.5
2017-03-23T13:51:06.386Z,1018.5
2017-03-23T13:52:08.727Z,1018.4
2017-03-23T13:53:11.574Z,1018.5
2017-03-23T13:54:14.287Z,1018.5
2017-03-23T13:55:16.905Z,1018.5
2017-03-23T13:56:19.259Z,1018.4
2017-03-23T13:57:21.976Z,1018.5
2017-03-23T13:58:24.695Z,1018.5
2017-03-23T13:59:27.542Z,1018.5
2017-03-23T14:00:30.144Z,1018.5
2017-03-23T14:01:32.490Z,1018.5
2017-03-23T14:02:35.345Z,1018.4
2017-03-23T14:03:38.057Z,1018.5
2017-03-23T14:04:40.770Z,1018.5
2017-03-23T14:05:43.486Z,1018.5
2017-03-23T14:06:45.839Z,1018.5
2017-03-23T14:07:48.688Z,1018.5
2017-03-23T14:08:51.407Z,1018.5
2017-03-23T14:09:53.750Z,1018.5
2017-03-23T14:10:56.714Z,1018.5
2017-03-23T14:11:59.056Z,1018.6
2017-03-23T14:13:01.768Z,1018.6
2017-03-23T14:14:04.615Z,1018.6
2017-03-23T14:16:10.122Z,1018.6
2017-03-23T14:17:12.470Z,1018.6
2017-03-23T14:18:15.050Z,1018.6
2017-03-23T14:19:17.395Z,1018.6
2017-03-23T14:20:20.106Z,1018.5
2017-03-23T14:21:23.080Z,1018.6
2017-03-23T14:22:25.426Z,1018.6
2017-03-23T14:23:28.275Z,1018.6
2017-03-23T14:24:30.992Z,1018.6
2017-03-23T14:25:33.341Z,1018.7
2017-03-23T14:26:36.509Z,1018.7
2017-03-23T14:27:38.870Z,1018.6
2017-03-23T14:28:41.584Z,1018.7
2017-03-23T14:29:43.930Z,1018.7
2017-03-23T14:30:46.779Z,1018.7
2017-03-23T14:31:49.377Z,1018.7
2017-03-23T14:32:51.724Z,1018.7
2017-03-23T14:33:54.568Z,1018.7
2017-03-23T14:34:57.418Z,1018.7
2017-03-23T14:35:59.634Z,1018.7
2017-03-23T14:37:02.598Z,1018.7
2017-03-23T14:38:05.178Z,1018.7
2017-03-23T14:39:07.898Z,1018.7
2017-03-23T14:40:10.241Z,1018.7
2017-03-23T14:41:13.088Z,1018.8
2017-03-23T14:42:15.691Z,1018.8
2017-03-23T14:44:20.946Z,1018.7
2017-03-23T14:45:23.801Z,1018.7
2017-03-23T14:46:26.012Z,1018.7
2017-03-23T14:47:29.114Z,1018.7
2017-03-23T14:48:31.327Z,1018.8
2017-03-23T14:49:34.185Z,1018.8
2017-03-23T14:50:36.899Z,1018.8
2017-03-23T14:51:39.249Z,1018.8
2017-03-23T14:52:42.352Z,1018.7
2017-03-23T14:53:44.563Z,1018.7